Time;durP1;ratioP1;P1;durP2;ratioP2;P2;SDS_P1;SDS_P2;PMS_P1;PMS_P2;Temp;Humidity;BMP_temperature;BMP_pressure;BME280_temperature;BME280_humidity;BME280_pressure;Samples;Min_cycle;Max_cycle;Signal;HPM_P1;HPM_P2
2024/03/15 00:07:29;;;;;;;99.43;47.15;;;2.30;99.90;;;;;;20779350;28;20041;-41
2024/03/15 00:17:31;;;;;;;100.65;46.88;;;2.20;99.90;;;;;;20813047;28;20049;-40
2024/03/15 00:27:34;;;;;;;103.13;45.80;;;2.10;99.90;;;;;;20842461;28;20033;-41
2024/03/15 00:37:36;;;;;;;98.20;44.22;;;2.20;99.90;;;;;;20813457;28;20096;-41
2024/03/15 00:47:40;;;;;;;101.03;47.13;;;2.20;99.90;;;;;;20809232;28;20045;-41
2024/03/15 00:57:42;;;;;;;67.57;33.75;;;2.30;99.90;;;;;;20786018;28;20036;-41
2024/03/15 01:07:44;;;;;;;69.63;35.95;;;2.20;99.90;;;;;;20763764;28;20029;-41
2024/03/15 01:17:47;;;;;;;68.78;33.83;;;2.00;99.90;;;;;;20801463;28;20036;-43
2024/03/15 01:27:49;;;;;;;56.55;28.48;;;2.00;99.90;;;;;;20843392;28;20079;-42
2024/03/15 01:37:53;;;;;;;59.42;30.15;;;2.00;99.90;;;;;;20901721;28;20450;-41
2024/03/15 01:47:56;;;;;;;29.38;17.23;;;2.00;99.90;;;;;;20913076;28;20110;-41
2024/03/15 01:58:01;;;;;;;38.95;20.42;;;2.00;99.90;;;;;;20894245;28;20041;-43
2024/03/15 02:08:07;;;;;;;42.42;21.63;;;1.90;99.90;;;;;;20893649;28;20094;-41
2024/03/15 02:18:09;;;;;;;41.03;21.70;;;1.90;99.90;;;;;;20908558;28;20087;-43
2024/03/15 02:28:11;;;;;;;42.80;21.70;;;1.80;99.90;;;;;;20889357;28;20038;-43
2024/03/15 02:38:13;;;;;;;37.92;20.08;;;1.80;99.90;;;;;;20797870;28;20076;-42
2024/03/15 02:48:16;;;;;;;38.20;19.35;;;1.80;99.90;;;;;;20762345;28;20040;-43
2024/03/15 02:58:19;;;;;;;37.83;20.73;;;1.80;99.90;;;;;;20755476;28;20034;-44
2024/03/15 03:08:20;;;;;;;40.97;22.27;;;1.70;99.90;;;;;;20786515;28;20029;-41
2024/03/15 03:18:22;;;;;;;42.08;22.77;;;1.70;99.90;;;;;;20818020;28;20045;-40
2024/03/15 03:28:24;;;;;;;46.83;24.42;;;1.70;99.90;;;;;;20789653;28;20038;-41
2024/03/15 03:38:26;;;;;;;49.70;24.65;;;1.70;99.90;;;;;;20769192;28;20441;-43
2024/03/15 03:48:29;;;;;;;43.90;24.40;;;1.80;99.90;;;;;;20787844;28;20033;-41
2024/03/15 03:58:31;;;;;;;48.22;24.65;;;1.90;99.90;;;;;;20816403;28;20038;-41
2024/03/15 04:08:34;;;;;;;40.95;21.85;;;1.90;99.90;;;;;;20821324;28;20044;-42
2024/03/15 04:18:36;;;;;;;43.85;23.92;;;2.20;99.90;;;;;;20787243;28;20115;-42
2024/03/15 04:28:38;;;;;;;58.97;29.20;;;1.90;99.90;;;;;;20818828;28;20072;-41
2024/03/15 04:38:40;;;;;;;52.42;27.30;;;1.90;99.90;;;;;;20807271;28;20045;-41
2024/03/15 04:48:45;;;;;;;45.05;23.13;;;1.90;99.90;;;;;;20752494;28;20148;-41
2024/03/15 04:58:47;;;;;;;44.13;25.08;;;1.90;99.90;;;;;;20653820;28;20042;-41
2024/03/15 05:08:49;;;;;;;51.58;25.55;;;1.70;99.90;;;;;;20656172;28;20042;-41
2024/03/15 05:18:51;;;;;;;53.50;26.92;;;1.80;99.90;;;;;;20616267;28;20086;-44
2024/03/15 05:28:52;;;;;;;52.92;26.05;;;1.80;99.90;;;;;;20605340;28;20042;-45
2024/03/15 05:38:54;;;;;;;50.58;27.02;;;1.80;99.90;;;;;;20820526;28;20103;-41
2024/03/15 05:48:56;;;;;;;44.08;23.60;;;1.90;99.90;;;;;;20825390;28;20107;-41
2024/03/15 05:58:58;;;;;;;48.80;26.00;;;2.20;99.90;;;;;;20826508;28;20431;-42
2024/03/15 06:09:04;;;;;;;46.35;25.70;;;2.30;99.90;;;;;;20828522;28;20033;-42
2024/03/15 06:19:07;;;;;;;43.78;24.20;;;2.40;99.90;;;;;;20791001;28;20045;-41
2024/03/15 06:29:11;;;;;;;44.53;23.95;;;2.60;99.90;;;;;;20789892;28;20080;-43
2024/03/15 06:39:30;;;;;;;50.08;25.00;;;2.70;99.90;;;;;;20811952;28;20103;-41
2024/03/15 06:49:44;;;;;;;48.10;26.20;;;2.90;99.90;;;;;;20826782;28;20038;-41
2024/03/15 06:59:46;;;;;;;46.95;26.17;;;3.20;99.90;;;;;;20823594;28;20033;-43
2024/03/15 07:09:48;;;;;;;52.72;28.67;;;3.70;99.90;;;;;;20817089;28;20025;-43
2024/03/15 07:19:50;;;;;;;50.58;29.67;;;4.60;99.90;;;;;;20822677;28;20063;-48
2024/03/15 07:29:52;;;;;;;45.40;29.33;;;5.90;99.90;;;;;;20812355;28;20392;-43
2024/03/15 07:39:55;;;;;;;48.50;31.83;;;7.00;99.90;;;;;;20853711;28;20056;-43
2024/03/15 07:50:00;;;;;;;55.20;34.95;;;7.00;99.90;;;;;;20904029;28;20029;-47
2024/03/15 08:00:05;;;;;;;53.15;34.05;;;7.60;99.90;;;;;;20886778;28;20037;-45
2024/03/15 08:10:11;;;;;;;51.28;33.45;;;8.30;99.90;;;;;;20885338;28;20083;-49
2024/03/15 08:20:13;;;;;;;51.78;35.72;;;9.00;99.90;;;;;;20911568;28;20032;-42
2024/03/15 08:30:16;;;;;;;52.95;36.47;;;9.90;99.90;;;;;;20901134;28;20045;-45
2024/03/15 08:40:18;;;;;;;48.30;33.00;;;10.70;99.90;;;;;;20873416;28;20037;-42
2024/03/15 08:50:20;;;;;;;41.35;30.98;;;11.80;99.90;;;;;;20885424;28;20037;-45
2024/03/15 09:00:23;;;;;;;45.22;32.38;;;12.20;99.90;;;;;;20899231;28;20424;-45
2024/03/15 09:10:28;;;;;;;43.42;30.58;;;12.30;99.90;;;;;;20916106;28;20036;-42
2024/03/15 09:30:36;;;;;;;40.53;28.77;;;12.90;99.90;;;;;;20904498;28;20108;-42
2024/03/15 09:40:38;;;;;;;35.33;26.08;;;12.30;99.90;;;;;;20808179;28;20046;-45
2024/03/15 09:50:42;;;;;;;37.95;27.85;;;11.50;99.90;;;;;;20859735;28;20044;-45
2024/03/15 10:00:44;;;;;;;43.25;28.83;;;11.10;99.90;;;;;;20869060;28;20399;-46
2024/03/15 10:10:47;;;;;;;51.58;33.80;;;10.60;99.90;;;;;;20911034;28;20029;-44
2024/03/15 10:20:57;;;;;;;50.60;32.85;;;10.50;99.90;;;;;;20910365;28;20079;-45
2024/03/15 10:30:59;;;;;;;51.03;34.85;;;10.40;99.90;;;;;;20897554;28;20052;-45
2024/03/15 10:41:01;;;;;;;48.50;32.72;;;10.60;99.90;;;;;;20850759;28;20042;-45
2024/03/15 10:51:05;;;;;;;49.53;32.92;;;11.00;99.90;;;;;;20853917;28;20083;-44
2024/03/15 11:01:07;;;;;;;49.83;33.90;;;10.90;99.90;;;;;;20812840;28;20042;-45
2024/03/15 11:11:13;;;;;;;44.35;31.85;;;10.90;99.90;;;;;;20790473;28;20026;-46
2024/03/15 11:21:19;;;;;;;49.67;33.60;;;10.70;99.90;;;;;;20801000;28;20033;-49
2024/03/15 11:31:32;;;;;;;53.63;35.42;;;10.70;99.90;;;;;;20839792;28;20098;-41
2024/03/15 11:41:38;;;;;;;47.17;33.58;;;10.80;99.90;;;;;;20836396;28;20345;-43
2024/03/15 11:51:41;;;;;;;49.03;33.95;;;10.80;99.90;;;;;;20838761;28;20037;-45
2024/03/15 12:01:46;;;;;;;62.97;40.67;;;10.40;99.90;;;;;;20842620;28;20029;-41
2024/03/15 12:11:53;;;;;;;62.30;41.63;;;10.20;99.90;;;;;;20830697;28;20091;-43
2024/03/15 12:21:58;;;;;;;71.32;45.50;;;9.80;99.90;;;;;;20858396;28;20484;-44
2024/03/15 12:31:59;;;;;;;64.93;41.03;;;9.50;99.90;;;;;;20913609;28;20091;-43
2024/03/15 12:42:02;;;;;;;73.72;47.00;;;9.30;99.90;;;;;;20931083;28;20037;-44
2024/03/15 12:52:04;;;;;;;63.75;41.47;;;8.70;99.90;;;;;;20897760;28;20041;-44
2024/03/15 13:02:10;;;;;;;61.13;38.35;;;8.40;99.90;;;;;;20869153;28;20075;-44
2024/03/15 13:12:15;;;;;;;43.15;27.92;;;8.20;99.90;;;;;;20788118;28;20083;-44
2024/03/15 13:22:17;;;;;;;37.10;22.73;;;8.00;99.90;;;;;;20828027;28;20037;-40
2024/03/15 13:32:19;;;;;;;33.95;19.42;;;7.80;99.90;;;;;;20818827;28;20038;-46
2024/03/15 13:42:34;;;;;;;34.53;19.95;;;7.70;99.90;;;;;;20768268;28;20046;-43
2024/03/15 13:52:36;;;;;;;36.40;22.85;;;7.80;99.90;;;;;;20838986;28;20026;-43
2024/03/15 14:02:38;;;;;;;34.22;22.02;;;8.00;99.90;;;;;;20849048;28;20029;-45
2024/03/15 14:12:40;;;;;;;32.03;20.05;;;8.10;99.90;;;;;;20834300;28;20034;-44
2024/03/15 14:22:43;;;;;;;27.75;16.85;;;8.20;99.90;;;;;;20776413;28;20042;-44
2024/03/15 14:32:46;;;;;;;28.48;16.88;;;8.20;99.90;;;;;;20805742;28;20106;-46
2024/03/15 14:42:49;;;;;;;34.60;21.08;;;8.30;99.90;;;;;;20877956;28;20049;-42
2024/03/15 14:52:51;;;;;;;22.60;15.13;;;8.20;99.90;;;;;;20876036;28;20036;-45
2024/03/15 15:02:52;;;;;;;24.13;15.35;;;8.20;99.90;;;;;;20850325;28;20033;-44
2024/03/15 15:12:54;;;;;;;24.02;15.13;;;8.20;99.90;;;;;;20896391;28;20476;-42
2024/03/15 15:23:01;;;;;;;24.77;15.50;;;8.10;99.90;;;;;;20888176;28;20090;-41
2024/03/15 15:33:03;;;;;;;23.63;14.05;;;7.90;99.90;;;;;;20893649;28;20041;-41
2024/03/15 15:43:06;;;;;;;25.90;15.95;;;7.90;99.90;;;;;;20830184;28;20041;-41
2024/03/15 15:53:08;;;;;;;27.58;17.45;;;7.70;99.90;;;;;;20775767;28;20077;-42
2024/03/15 16:03:10;;;;;;;24.67;15.02;;;7.60;99.90;;;;;;20799780;28;20037;-43
2024/03/15 16:13:22;;;;;;;23.02;13.38;;;7.50;99.90;;;;;;20750825;28;20080;-41
2024/03/15 16:23:24;;;;;;;21.50;14.68;;;7.60;99.90;;;;;;20765165;28;20084;-42
2024/03/15 16:33:26;;;;;;;23.05;14.13;;;7.50;99.90;;;;;;20757467;28;20467;-42
2024/03/15 16:43:28;;;;;;;25.15;15.02;;;7.20;99.90;;;;;;20813631;28;20095;-41
2024/03/15 16:53:30;;;;;;;26.05;15.38;;;6.90;99.90;;;;;;20812751;28;20033;-43
2024/03/15 17:03:37;;;;;;;24.02;14.55;;;6.70;99.90;;;;;;20834047;28;20029;-44
2024/03/15 17:13:39;;;;;;;22.08;13.93;;;6.60;99.90;;;;;;20833234;28;20033;-42
2024/03/15 17:23:41;;;;;;;22.60;14.30;;;6.50;99.90;;;;;;20832552;28;20037;-44
2024/03/15 17:33:44;;;;;;;23.77;15.57;;;6.40;99.90;;;;;;20843303;28;20044;-44
2024/03/15 17:43:47;;;;;;;22.83;13.93;;;6.40;99.90;;;;;;20913172;28;20091;-46
2024/03/15 17:53:49;;;;;;;25.77;15.43;;;6.30;99.90;;;;;;20882837;28;20435;-44
2024/03/15 18:03:52;;;;;;;23.00;13.48;;;6.30;99.90;;;;;;20816703;28;20035;-48
2024/03/15 18:13:54;;;;;;;26.85;16.73;;;6.20;99.90;;;;;;20832761;28;20084;-42
2024/03/15 18:23:57;;;;;;;32.20;18.35;;;6.10;99.90;;;;;;20871968;28;20039;-41
2024/03/15 18:33:59;;;;;;;36.28;19.52;;;6.00;99.90;;;;;;20909496;28;20056;-41
2024/03/15 18:44:01;;;;;;;31.77;18.40;;;5.70;99.90;;;;;;20827762;28;20496;-42
2024/03/15 18:54:04;;;;;;;27.33;17.60;;;5.50;99.90;;;;;;20735808;28;20037;-41
2024/03/15 19:04:06;;;;;;;34.33;20.02;;;5.60;99.90;;;;;;20762330;28;20550;-41
2024/03/15 19:14:12;;;;;;;32.88;19.90;;;5.60;99.90;;;;;;20824472;28;20037;-41
2024/03/15 19:24:14;;;;;;;36.95;20.85;;;5.50;99.90;;;;;;20821964;28;20037;-46
2024/03/15 19:34:23;;;;;;;36.97;21.23;;;5.50;99.90;;;;;;20823511;28;20041;-40
2024/03/15 19:44:25;;;;;;;40.20;21.63;;;5.30;99.90;;;;;;20875660;28;20488;-42
2024/03/15 19:54:30;;;;;;;39.65;22.95;;;5.20;99.90;;;;;;20901398;28;20557;-43
2024/03/15 20:04:32;;;;;;;48.67;26.05;;;4.70;99.90;;;;;;20870654;28;20411;-43
2024/03/15 20:14:34;;;;;;;52.15;26.20;;;4.10;99.90;;;;;;20879942;28;20037;-44
2024/03/15 20:24:36;;;;;;;53.00;27.25;;;3.70;99.90;;;;;;20878598;28;20087;-44
2024/03/15 20:34:37;;;;;;;59.30;29.50;;;3.60;99.90;;;;;;20918051;28;20052;-42
2024/03/15 20:44:41;;;;;;;56.08;27.60;;;3.30;99.90;;;;;;20833636;28;20037;-43
2024/03/15 20:54:43;;;;;;;66.95;30.52;;;3.20;99.90;;;;;;20831094;28;20041;-40
2024/03/15 21:04:45;;;;;;;64.25;29.98;;;2.90;99.90;;;;;;20799021;28;20025;-44
2024/03/15 21:14:49;;;;;;;66.47;30.30;;;2.80;99.90;;;;;;20915391;28;20041;-43
2024/03/15 21:24:50;;;;;;;79.55;39.15;;;2.70;99.90;;;;;;20867567;28;20080;-42
2024/03/15 21:34:52;;;;;;;64.68;29.63;;;2.80;99.90;;;;;;20877006;28;20044;-44
2024/03/15 21:44:54;;;;;;;67.43;31.77;;;2.70;99.90;;;;;;20896235;28;20373;-43
2024/03/15 21:54:55;;;;;;;71.28;33.00;;;2.60;99.90;;;;;;20912169;28;20033;-41
2024/03/15 22:04:58;;;;;;;71.82;32.25;;;2.60;99.90;;;;;;20900482;28;20029;-42
2024/03/15 22:15:00;;;;;;;65.07;29.08;;;2.60;99.90;;;;;;20848981;28;20045;-42
2024/03/15 22:25:04;;;;;;;66.03;30.40;;;2.50;99.90;;;;;;20904266;28;20395;-43
2024/03/15 22:35:06;;;;;;;71.78;34.15;;;2.80;99.90;;;;;;20870784;28;20037;-41
2024/03/15 22:45:08;;;;;;;68.13;32.90;;;3.20;99.90;;;;;;20843529;28;20033;-44
2024/03/15 22:55:10;;;;;;;54.10;26.75;;;3.50;99.90;;;;;;20858773;28;20391;-40
2024/03/15 23:05:12;;;;;;;60.70;28.73;;;3.60;99.90;;;;;;20837603;28;20099;-44
2024/03/15 23:15:14;;;;;;;55.65;27.05;;;3.40;99.90;;;;;;20847483;28;20083;-41
2024/03/15 23:25:17;;;;;;;76.13;33.22;;;3.10;99.90;;;;;;20843780;28;20361;-42
2024/03/15 23:35:20;;;;;;;71.43;31.60;;;2.90;99.90;;;;;;20812697;28;20056;-41
2024/03/15 23:45:21;;;;;;;72.30;32.45;;;3.00;99.90;;;;;;20767700;28;20064;-41
2024/03/15 23:55:23;;;;;;;79.13;34.33;;;3.00;99.90;;;;;;20804023;28;20038;-41
